Time;durP1;ratioP1;P1;durP2;ratioP2;P2;SDS_P1;SDS_P2;PMS_P1;PMS_P2;Temp;Humidity;BMP_temperature;BMP_pressure;BME280_temperature;BME280_humidity;BME280_pressure;Samples;Min_cycle;Max_cycle;Signal;HPM_P1;HPM_P2
2023/10/05 00:02:10;;;;;;;25.97;3.23;;;12.00;99.90;;;;;;1927570;73;25180;-88
2023/10/05 00:04:58;;;;;;;15.70;2.93;;;12.10;99.90;;;;;;1940177;73;25321;-89
2023/10/05 00:07:47;;;;;;;22.63;3.33;;;12.20;99.90;;;;;;1939294;73;25267;-89
2023/10/05 00:24:35;;;;;;;17.17;2.73;;;12.10;99.90;;;;;;1931695;73;26986;-90
2023/10/05 00:30:12;;;;;;;16.33;2.87;;;11.80;99.90;;;;;;1923012;72;27478;-88
2023/10/05 00:33:00;;;;;;;19.17;2.93;;;11.70;99.90;;;;;;1907845;73;25229;-88
2023/10/05 00:35:49;;;;;;;17.57;2.47;;;11.60;99.90;;;;;;1907996;73;25258;-88
2023/10/05 00:41:28;;;;;;;15.70;2.63;;;11.50;99.90;;;;;;1938987;72;27143;-88
2023/10/05 00:47:05;;;;;;;12.17;2.73;;;11.40;99.90;;;;;;1933416;72;26912;-88
2023/10/05 00:49:53;;;;;;;17.63;3.10;;;11.10;99.90;;;;;;1916417;75;25678;-88
2023/10/05 00:52:44;;;;;;;24.93;3.53;;;10.90;99.90;;;;;;1933252;73;25165;-88
2023/10/05 00:55:34;;;;;;;13.77;2.90;;;10.80;99.90;;;;;;1913854;73;25734;-88
2023/10/05 00:58:23;;;;;;;16.57;3.00;;;10.70;99.90;;;;;;1917368;73;25315;-88
2023/10/05 01:01:15;;;;;;;14.50;2.73;;;10.70;99.90;;;;;;1917275;73;25223;-88
2023/10/05 01:04:23;;;;;;;17.80;2.90;;;10.70;99.90;;;;;;1941396;73;25257;-89
2023/10/05 01:07:17;;;;;;;14.00;2.57;;;10.70;99.90;;;;;;1919108;73;25251;-88
2023/10/05 01:13:31;;;;;;;17.30;2.40;;;10.70;99.90;;;;;;1920579;73;25708;-89
2023/10/05 01:16:19;;;;;;;19.27;2.30;;;10.70;99.90;;;;;;1919238;73;25355;-88
2023/10/05 01:19:08;;;;;;;12.20;2.40;;;10.70;99.90;;;;;;1936112;73;25592;-89
2023/10/05 01:21:57;;;;;;;18.80;2.17;;;10.50;99.90;;;;;;1935679;73;25223;-88
2023/10/05 01:24:46;;;;;;;11.33;2.20;;;10.50;99.90;;;;;;1925569;73;25229;-88
2023/10/05 01:27:36;;;;;;;12.83;2.43;;;10.50;99.90;;;;;;1925036;73;25293;-88
2023/10/05 01:33:11;;;;;;;10.60;2.10;;;10.40;99.90;;;;;;1947546;72;27137;-88
2023/10/05 01:36:00;;;;;;;12.83;2.40;;;10.40;99.90;;;;;;1919281;73;25308;-88
2023/10/05 01:38:48;;;;;;;10.00;1.90;;;10.30;99.90;;;;;;1934768;73;25284;-88
2023/10/05 01:44:28;;;;;;;8.63;1.90;;;10.30;99.90;;;;;;1940154;72;27088;-88
2023/10/05 01:47:17;;;;;;;11.23;2.00;;;10.20;99.90;;;;;;1921861;73;25339;-88
2023/10/05 01:53:01;;;;;;;13.53;2.23;;;10.20;99.90;;;;;;1947907;72;27025;-88
2023/10/05 01:55:49;;;;;;;12.77;1.80;;;10.20;99.90;;;;;;1917321;73;25231;-88
2023/10/05 01:58:42;;;;;;;7.33;1.90;;;10.20;99.90;;;;;;1919716;73;25272;-88
2023/10/05 02:01:28;;;;;;;6.33;1.73;;;10.10;99.90;;;;;;1930654;73;25779;-88
2023/10/05 02:04:16;;;;;;;10.83;1.90;;;9.90;99.90;;;;;;1916142;73;25242;-87
2023/10/05 02:09:52;;;;;;;13.30;1.90;;;9.90;99.90;;;;;;1886664;75;27633;-88
2023/10/05 02:18:22;;;;;;;13.93;2.37;;;10.00;99.90;;;;;;1935584;72;26843;-88
2023/10/05 02:21:08;;;;;;;8.77;2.33;;;10.10;99.90;;;;;;1900863;74;25273;-88
2023/10/05 02:24:10;;;;;;;9.03;1.87;;;10.00;99.90;;;;;;1905479;75;25329;-88
2023/10/05 02:27:09;;;;;;;10.57;2.00;;;10.00;99.90;;;;;;1890378;75;25239;-88
2023/10/05 02:33:04;;;;;;;14.00;2.03;;;10.00;99.90;;;;;;1918915;72;26141;-88
2023/10/05 02:35:55;;;;;;;11.57;1.87;;;10.00;99.90;;;;;;1910925;73;25275;-88
2023/10/05 02:38:49;;;;;;;12.97;2.23;;;10.00;99.90;;;;;;1990052;71;25217;-88
2023/10/05 02:44:30;;;;;;;10.40;1.87;;;9.90;99.90;;;;;;1948709;72;27079;-88
2023/10/05 02:47:23;;;;;;;10.50;1.90;;;9.80;99.90;;;;;;1928412;73;25715;-88
2023/10/05 02:50:10;;;;;;;13.63;2.00;;;9.80;99.90;;;;;;1928886;73;25220;-88
2023/10/05 02:53:04;;;;;;;5.90;1.67;;;9.80;99.90;;;;;;1933202;73;25171;-88
2023/10/05 02:55:54;;;;;;;9.73;1.87;;;9.70;99.90;;;;;;1916688;73;25346;-88
2023/10/05 02:58:40;;;;;;;5.77;1.70;;;9.60;99.90;;;;;;1918584;73;25305;-88
2023/10/05 03:15:12;;;;;;;4.17;1.73;;;9.50;99.90;;;;;;1878284;74;26420;-88
2023/10/05 03:21:14;;;;;;;10.57;2.03;;;9.30;99.90;;;;;;1978128;71;26025;-87
2023/10/05 03:24:04;;;;;;;4.40;1.50;;;9.20;99.90;;;;;;1956951;72;25604;-89
2023/10/05 03:29:46;;;;;;;5.40;1.83;;;9.10;99.90;;;;;;1959452;72;27556;-88
2023/10/05 03:32:37;;;;;;;5.53;1.60;;;9.00;99.90;;;;;;1930866;73;25402;-88
2023/10/05 03:35:26;;;;;;;6.60;1.80;;;9.10;99.90;;;;;;1917480;73;26584;-88
2023/10/05 03:38:19;;;;;;;5.53;1.70;;;9.10;99.90;;;;;;1919194;73;25247;-88
2023/10/05 03:41:08;;;;;;;4.10;1.60;;;9.10;99.90;;;;;;1917222;73;25226;-88
2023/10/05 03:43:57;;;;;;;5.33;1.50;;;8.90;99.90;;;;;;1885993;75;25790;-88
2023/10/05 03:46:46;;;;;;;3.80;1.50;;;8.80;99.90;;;;;;1897100;74;25760;-88
2023/10/05 03:49:36;;;;;;;5.40;1.60;;;8.70;99.90;;;;;;1888297;75;25321;-88
2023/10/05 03:52:29;;;;;;;3.67;1.40;;;8.60;99.90;;;;;;1893473;74;25276;-88
2023/10/05 03:55:18;;;;;;;2.43;1.30;;;8.50;99.90;;;;;;1897116;75;25374;-88
2023/10/05 04:00:49;;;;;;;1.97;1.27;;;8.40;99.90;;;;;;1934280;72;27542;-87
2023/10/05 04:03:38;;;;;;;3.07;1.20;;;8.40;99.90;;;;;;1891963;75;25163;-87
2023/10/05 04:06:28;;;;;;;7.20;1.20;;;8.40;99.90;;;;;;1861466;76;25241;-88
2023/10/05 04:09:19;;;;;;;1.30;1.20;;;8.40;99.90;;;;;;1897646;75;25743;-88
2023/10/05 04:14:51;;;;;;;2.23;1.07;;;8.30;99.90;;;;;;1951907;72;27030;-87
2023/10/05 04:17:39;;;;;;;3.70;1.00;;;8.20;99.90;;;;;;1909129;75;25336;-87
2023/10/05 04:20:28;;;;;;;2.97;0.80;;;8.30;99.90;;;;;;1900183;75;25262;-88
2023/10/05 04:23:25;;;;;;;0.90;0.70;;;8.30;99.90;;;;;;1888682;75;25210;-87
2023/10/05 04:26:08;;;;;;;1.53;0.90;;;8.20;99.90;;;;;;1903949;75;25212;-87
2023/10/05 04:31:48;;;;;;;1.53;1.03;;;8.20;99.90;;;;;;1943663;72;26992;-88
2023/10/05 04:34:34;;;;;;;2.97;1.13;;;8.30;99.90;;;;;;1898426;75;25716;-87
2023/10/05 04:37:22;;;;;;;0.87;0.83;;;8.20;99.90;;;;;;1890025;75;25286;-87
2023/10/05 04:40:15;;;;;;;2.63;0.83;;;8.30;99.90;;;;;;1889257;75;25203;-87
2023/10/05 04:43:10;;;;;;;2.43;1.07;;;8.20;99.90;;;;;;1851001;75;25301;-87
2023/10/05 04:45:55;;;;;;;6.20;0.90;;;8.20;99.90;;;;;;1881052;76;25238;-88
2023/10/05 04:48:55;;;;;;;1.43;0.60;;;8.20;99.90;;;;;;1881070;75;25245;-87
2023/10/05 04:51:35;;;;;;;1.17;0.70;;;8.30;99.90;;;;;;1863444;75;25327;-87
2023/10/05 05:23:43;;;;;;;2.00;1.37;;;8.00;99.90;;;;;;1956738;71;27249;-87
2023/10/05 05:26:32;;;;;;;1.97;0.90;;;8.10;99.90;;;;;;1980961;72;25203;-87
2023/10/05 05:29:22;;;;;;;2.77;0.90;;;8.00;99.90;;;;;;1993449;71;25190;-87
2023/10/05 05:32:10;;;;;;;1.13;0.90;;;8.00;99.90;;;;;;1996735;70;25345;-87
2023/10/05 05:37:39;;;;;;;2.23;0.80;;;8.00;99.90;;;;;;2028509;69;26982;-89
2023/10/05 05:40:29;;;;;;;1.00;0.83;;;8.00;99.90;;;;;;1990243;72;25744;-89
2023/10/05 05:43:17;;;;;;;3.03;0.80;;;8.00;99.90;;;;;;1952836;72;25241;-89
2023/10/05 05:46:09;;;;;;;1.00;0.90;;;8.00;99.90;;;;;;1953507;72;25220;-89
2023/10/05 05:48:57;;;;;;;1.10;1.00;;;8.00;99.90;;;;;;1950730;72;25659;-89
2023/10/05 05:51:47;;;;;;;3.30;0.90;;;8.00;99.90;;;;;;1944233;72;25728;-89
2023/10/05 05:57:20;;;;;;;0.70;0.70;;;7.80;99.90;;;;;;1949636;72;27061;-87
2023/10/05 06:00:18;;;;;;;3.03;0.93;;;7.80;99.90;;;;;;1930714;73;25854;-87
2023/10/05 06:03:10;;;;;;;2.77;0.80;;;7.90;99.90;;;;;;1926051;73;25350;-88
2023/10/05 06:08:47;;;;;;;1.13;1.03;;;7.80;99.90;;;;;;1946050;72;26969;-87
2023/10/05 06:14:21;;;;;;;0.80;0.80;;;7.80;99.90;;;;;;1943325;72;27657;-87
2023/10/05 06:17:11;;;;;;;0.70;0.70;;;7.80;99.90;;;;;;1927260;73;25270;-87
2023/10/05 06:19:59;;;;;;;1.23;0.70;;;7.80;99.90;;;;;;1940249;73;25638;-88
2023/10/05 06:22:49;;;;;;;1.40;0.90;;;7.80;99.90;;;;;;1922122;73;25976;-89
2023/10/05 06:25:39;;;;;;;2.17;1.10;;;7.70;99.90;;;;;;1934976;73;25644;-89
2023/10/05 06:28:27;;;;;;;1.80;1.20;;;7.70;99.90;;;;;;1933944;73;25266;-87
2023/10/05 06:31:16;;;;;;;3.73;1.03;;;7.60;99.90;;;;;;1931672;73;25232;-88
2023/10/05 06:34:09;;;;;;;3.90;1.00;;;7.60;99.90;;;;;;1927949;73;25568;-88
2023/10/05 06:49:28;;;;;;;0.90;0.80;;;7.50;99.90;;;;;;2034728;69;26318;-87
2023/10/05 06:52:17;;;;;;;0.97;0.90;;;7.70;99.90;;;;;;2020070;71;25210;-87
2023/10/05 06:55:08;;;;;;;5.77;0.80;;;7.70;99.90;;;;;;1981940;70;25181;-87
2023/10/05 06:57:56;;;;;;;1.60;0.57;;;7.80;99.90;;;;;;2016501;70;25177;-87
2023/10/05 07:00:45;;;;;;;2.63;0.80;;;7.80;99.90;;;;;;1990111;70;25293;-87
2023/10/05 07:03:33;;;;;;;1.00;0.60;;;7.90;99.90;;;;;;1995280;71;25330;-87
2023/10/05 07:06:24;;;;;;;1.70;0.90;;;8.00;99.90;;;;;;1997162;72;25231;-88
2023/10/05 07:09:13;;;;;;;1.40;0.57;;;8.10;99.90;;;;;;1954750;72;25703;-88
2023/10/05 07:12:03;;;;;;;2.03;0.60;;;8.10;99.90;;;;;;2008508;70;25564;-88
2023/10/05 07:14:51;;;;;;;1.20;0.67;;;8.00;99.90;;;;;;1999284;70;25148;-88
2023/10/05 07:17:40;;;;;;;1.40;0.77;;;8.20;99.90;;;;;;2008514;70;25231;-88
2023/10/05 07:20:28;;;;;;;0.83;0.83;;;8.20;99.90;;;;;;2016362;71;25188;-88
2023/10/05 07:23:17;;;;;;;1.20;0.93;;;8.30;99.90;;;;;;1993508;71;25666;-88
2023/10/05 07:26:07;;;;;;;1.17;0.93;;;8.40;99.90;;;;;;1989707;71;25303;-88
2023/10/05 07:28:58;;;;;;;8.77;1.30;;;8.30;99.90;;;;;;1972640;71;25246;-88
2023/10/05 07:31:46;;;;;;;2.23;0.80;;;8.50;99.90;;;;;;2005597;69;25275;-88
2023/10/05 07:34:38;;;;;;;2.40;0.80;;;8.70;99.90;;;;;;1994983;69;25192;-88
2023/10/05 07:37:27;;;;;;;0.97;0.90;;;8.50;99.90;;;;;;1962704;71;25267;-88
2023/10/05 07:40:16;;;;;;;3.27;1.00;;;8.50;99.90;;;;;;2002928;69;25305;-88
2023/10/05 07:43:06;;;;;;;1.17;0.70;;;8.80;99.90;;;;;;1986879;71;25286;-88
2023/10/05 07:48:43;;;;;;;2.73;0.90;;;9.00;99.90;;;;;;1946510;72;27097;-87
2023/10/05 07:51:32;;;;;;;2.63;0.97;;;9.00;99.90;;;;;;1944821;73;25233;-87
2023/10/05 07:54:21;;;;;;;6.00;1.00;;;9.00;99.90;;;;;;1926383;73;25699;-87
2023/10/05 07:57:11;;;;;;;2.13;0.80;;;8.90;99.90;;;;;;1921430;73;25731;-87
2023/10/05 08:02:46;;;;;;;3.03;0.87;;;9.10;99.90;;;;;;1941979;72;27158;-87
2023/10/05 08:05:34;;;;;;;1.60;0.90;;;9.10;99.90;;;;;;1923919;73;25636;-87
2023/10/05 08:08:23;;;;;;;1.43;0.80;;;9.20;99.90;;;;;;1944434;73;25276;-87
2023/10/05 08:11:13;;;;;;;2.27;0.80;;;9.40;99.90;;;;;;1927062;73;25315;-87
2023/10/05 08:14:04;;;;;;;1.27;0.80;;;9.40;99.90;;;;;;1927958;73;25327;-87
2023/10/05 08:16:55;;;;;;;1.03;0.83;;;9.30;99.90;;;;;;1929637;73;25165;-87
2023/10/05 08:22:36;;;;;;;3.07;0.87;;;9.70;99.90;;;;;;2031302;69;27019;-87
2023/10/05 08:28:20;;;;;;;1.23;0.80;;;9.70;99.90;;;;;;1946529;72;26914;-87
2023/10/05 08:31:11;;;;;;;2.33;0.77;;;9.30;99.90;;;;;;1925305;73;25588;-87
2023/10/05 08:34:00;;;;;;;0.60;0.60;;;9.30;99.90;;;;;;1944325;73;26375;-88
2023/10/05 08:39:35;;;;;;;1.23;0.90;;;9.80;99.90;;;;;;1926595;72;27628;-88
2023/10/05 08:42:26;;;;;;;3.07;0.70;;;9.80;99.90;;;;;;1920601;73;25368;-88
2023/10/05 08:45:14;;;;;;;1.67;0.97;;;9.60;99.90;;;;;;1867134;75;25391;-88
2023/10/05 08:48:08;;;;;;;1.93;0.90;;;9.60;99.90;;;;;;1855809;76;25378;-88
2023/10/05 08:53:50;;;;;;;1.80;0.90;;;10.00;99.90;;;;;;1942259;72;27409;-88
2023/10/05 08:56:41;;;;;;;1.43;0.87;;;9.90;99.90;;;;;;1929979;72;25304;-88
2023/10/05 08:59:30;;;;;;;1.27;0.90;;;9.80;99.90;;;;;;1923089;73;25358;-89
2023/10/05 09:02:21;;;;;;;3.50;1.00;;;9.90;99.90;;;;;;1942601;72;25150;-89
2023/10/05 09:05:14;;;;;;;1.00;0.90;;;10.30;99.90;;;;;;1922311;73;25249;-89
2023/10/05 09:07:59;;;;;;;4.60;1.00;;;10.30;99.90;;;;;;1933456;72;25277;-89
2023/10/05 09:10:51;;;;;;;3.90;1.20;;;10.50;99.90;;;;;;1926038;72;25253;-89
2023/10/05 09:13:45;;;;;;;2.67;1.10;;;10.20;99.90;;;;;;1934647;73;25247;-89
2023/10/05 09:19:29;;;;;;;1.43;0.80;;;10.30;99.90;;;;;;1943754;72;27120;-88
2023/10/05 09:22:22;;;;;;;1.57;0.87;;;10.30;99.90;;;;;;1922816;73;25693;-88
2023/10/05 09:25:15;;;;;;;3.47;0.80;;;10.50;99.90;;;;;;1927661;73;25303;-88
2023/10/05 09:30:55;;;;;;;1.20;0.90;;;10.60;99.90;;;;;;1945204;72;27108;-88
2023/10/05 09:36:41;;;;;;;2.83;0.90;;;10.80;99.90;;;;;;1961114;72;26917;-88
2023/10/05 09:42:48;;;;;;;3.07;1.00;;;10.70;99.90;;;;;;1956708;71;26349;-88
2023/10/05 09:45:39;;;;;;;4.70;1.20;;;10.50;99.90;;;;;;1934067;73;25177;-88
2023/10/05 09:48:27;;;;;;;3.00;0.93;;;10.60;99.90;;;;;;1981441;70;25194;-88
2023/10/05 09:51:16;;;;;;;2.70;1.07;;;10.90;99.90;;;;;;1977960;72;25200;-88
2023/10/05 09:54:08;;;;;;;4.63;1.20;;;10.90;99.90;;;;;;2007665;70;25147;-88
2023/10/05 09:56:56;;;;;;;3.10;0.97;;;10.90;99.90;;;;;;2005716;70;25239;-89
2023/10/05 09:59:53;;;;;;;5.43;0.90;;;10.90;99.90;;;;;;1995724;70;25491;-88
2023/10/05 10:02:38;;;;;;;1.67;0.93;;;10.60;99.90;;;;;;1958303;72;25223;-88
2023/10/05 10:05:35;;;;;;;2.40;0.90;;;10.70;99.90;;;;;;1981409;70;25177;-88
2023/10/05 10:08:26;;;;;;;3.37;1.27;;;10.90;99.90;;;;;;1993405;70;26618;-89
2023/10/05 10:11:18;;;;;;;4.30;1.33;;;11.00;99.90;;;;;;1989737;71;25205;-89
2023/10/05 10:14:13;;;;;;;4.20;0.90;;;11.00;99.90;;;;;;1998743;70;25276;-88
2023/10/05 10:17:02;;;;;;;3.60;0.80;;;10.80;99.90;;;;;;1980532;70;25277;-88
2023/10/05 10:20:23;;;;;;;;;;;;;;;;;;;;;
2023/10/05 10:22:55;;;;;;;3.43;1.20;;;10.60;99.90;;;;;;1990498;70;25174;-88
2023/10/05 10:25:43;;;;;;;1.27;0.93;;;10.80;99.90;;;;;;1983732;71;25257;-88
2023/10/05 10:31:30;;;;;;;6.33;1.30;;;10.90;99.90;;;;;;1942065;72;27066;-89
2023/10/05 10:37:32;;;;;;;3.53;0.93;;;10.90;99.90;;;;;;1924120;72;27082;-88
2023/10/05 10:40:26;;;;;;;2.10;1.10;;;10.90;99.90;;;;;;1901508;75;25271;-88
2023/10/05 10:46:00;;;;;;;2.83;1.10;;;10.70;99.90;;;;;;1942977;72;27474;-88
2023/10/05 10:48:57;;;;;;;2.23;0.87;;;10.70;99.90;;;;;;1930116;72;25628;-88
2023/10/05 10:51:46;;;;;;;1.83;0.73;;;10.80;99.90;;;;;;1946935;73;25607;-89
2023/10/05 10:54:37;;;;;;;1.63;0.90;;;10.60;99.90;;;;;;1945138;73;26238;-89
2023/10/05 10:57:27;;;;;;;3.23;0.70;;;10.80;99.90;;;;;;1926053;73;25700;-89
2023/10/05 11:03:26;;;;;;;2.93;0.80;;;11.10;99.90;;;;;;1948235;73;25659;-89
2023/10/05 11:06:16;;;;;;;1.40;0.90;;;11.20;99.90;;;;;;1953769;72;25786;-89
2023/10/05 11:09:10;;;;;;;1.77;0.80;;;11.20;99.90;;;;;;1940416;73;25304;-89
2023/10/05 11:11:55;;;;;;;1.70;0.63;;;10.90;99.90;;;;;;1947968;72;25246;-89
2023/10/05 11:14:45;;;;;;;5.33;1.17;;;11.10;99.90;;;;;;1941874;72;25611;-89
2023/10/05 11:17:36;;;;;;;1.67;0.87;;;11.30;99.90;;;;;;1936020;73;25235;-89
2023/10/05 11:20:26;;;;;;;1.57;0.90;;;11.30;99.90;;;;;;1939162;72;25148;-89
2023/10/05 11:23:14;;;;;;;3.10;1.10;;;11.20;99.90;;;;;;1939301;73;25329;-89
2023/10/05 11:26:17;;;;;;;2.97;1.03;;;10.90;99.90;;;;;;1947632;72;25256;-89
2023/10/05 11:34:46;;;;;;;1.27;0.90;;;11.10;99.90;;;;;;1976817;71;26371;-89
2023/10/05 11:37:36;;;;;;;3.43;1.10;;;11.10;99.90;;;;;;1966755;72;25214;-88
2023/10/05 11:43:13;;;;;;;2.80;1.00;;;11.20;99.90;;;;;;1909564;72;27085;-88
2023/10/05 11:46:12;;;;;;;3.07;1.10;;;11.40;99.90;;;;;;1864687;74;25166;-88
2023/10/05 11:48:55;;;;;;;1.40;0.73;;;11.40;99.90;;;;;;1878211;75;25788;-88
2023/10/05 11:51:44;;;;;;;1.50;0.70;;;11.40;99.90;;;;;;1895765;75;25257;-88
2023/10/05 11:54:34;;;;;;;0.93;0.70;;;11.30;99.90;;;;;;1886876;75;25179;-89
2023/10/05 11:57:23;;;;;;;1.77;1.00;;;11.40;99.90;;;;;;1866240;75;25169;-89
2023/10/05 12:00:15;;;;;;;3.33;1.03;;;11.60;99.90;;;;;;1882305;74;25365;-89
2023/10/05 12:03:09;;;;;;;1.13;0.80;;;11.70;99.90;;;;;;1886520;75;25687;-89
2023/10/05 12:05:55;;;;;;;2.00;1.00;;;11.60;99.90;;;;;;1870936;75;25299;-89
2023/10/05 12:08:46;;;;;;;3.80;1.00;;;11.50;99.90;;;;;;1884797;75;25236;-89
2023/10/05 12:11:36;;;;;;;1.63;0.80;;;11.50;99.90;;;;;;1882876;75;25356;-89
2023/10/05 12:14:24;;;;;;;2.67;1.10;;;11.50;99.90;;;;;;1890323;75;25186;-89
2023/10/05 12:17:13;;;;;;;1.50;0.90;;;11.50;99.90;;;;;;1888301;75;25221;-89
2023/10/05 12:20:02;;;;;;;1.10;0.90;;;11.50;99.90;;;;;;1864384;75;25260;-89
2023/10/05 12:22:52;;;;;;;1.80;0.80;;;11.40;99.90;;;;;;1877808;75;25242;-89
2023/10/05 12:25:40;;;;;;;2.07;1.10;;;11.50;99.90;;;;;;1865208;75;25286;-89
2023/10/05 12:31:14;;;;;;;1.70;0.80;;;11.70;99.90;;;;;;1941742;72;27070;-89
2023/10/05 12:34:03;;;;;;;3.33;0.80;;;11.60;99.90;;;;;;1904404;75;25813;-89
2023/10/05 12:36:52;;;;;;;1.67;0.63;;;11.40;99.90;;;;;;1896153;75;25318;-88
2023/10/05 12:39:41;;;;;;;1.13;0.80;;;11.30;99.90;;;;;;1903747;75;25229;-89
2023/10/05 12:42:30;;;;;;;4.50;0.63;;;11.30;99.90;;;;;;1892010;75;25416;-89
2023/10/05 12:48:04;;;;;;;1.43;0.70;;;11.50;99.90;;;;;;1930594;72;27044;-88
2023/10/05 12:50:51;;;;;;;0.67;0.67;;;11.50;99.90;;;;;;1898113;75;25230;-88
2023/10/05 12:53:39;;;;;;;0.97;0.63;;;11.60;99.90;;;;;;1889920;75;25321;-89
2023/10/05 12:56:28;;;;;;;3.50;0.97;;;11.50;99.90;;;;;;1892235;75;25258;-90
2023/10/05 12:59:18;;;;;;;2.90;0.70;;;11.40;99.90;;;;;;1889498;75;25182;-90
2023/10/05 13:02:15;;;;;;;0.83;0.77;;;11.50;99.90;;;;;;1901418;75;25787;-89
2023/10/05 13:19:18;;;;;;;0.80;0.77;;;11.60;99.90;;;;;;1998301;71;26076;-88
2023/10/05 13:22:07;;;;;;;0.60;0.60;;;11.50;99.90;;;;;;1959725;72;25204;-88
2023/10/05 13:24:57;;;;;;;1.33;0.60;;;11.40;99.90;;;;;;2007024;71;25165;-88
2023/10/05 13:27:46;;;;;;;0.97;0.70;;;11.50;99.90;;;;;;2063177;69;25254;-89
2023/10/05 13:30:40;;;;;;;1.67;0.80;;;11.50;99.90;;;;;;2036380;69;25311;-88
2023/10/05 13:33:29;;;;;;;5.60;0.70;;;11.50;99.90;;;;;;2034009;69;25139;-89
2023/10/05 13:36:19;;;;;;;1.73;0.67;;;11.50;99.90;;;;;;2032586;69;25136;-88
2023/10/05 13:39:11;;;;;;;0.63;0.60;;;11.50;99.90;;;;;;2049653;69;25317;-88
2023/10/05 13:42:05;;;;;;;3.20;0.70;;;11.40;99.90;;;;;;2043100;69;25641;-89
2023/10/05 13:44:51;;;;;;;2.77;0.70;;;11.50;99.90;;;;;;2025487;70;25199;-89
2023/10/05 13:47:40;;;;;;;2.13;0.87;;;11.60;99.90;;;;;;2018342;69;25140;-88
2023/10/05 13:50:28;;;;;;;1.60;0.70;;;11.70;99.90;;;;;;2010441;70;25222;-89
2023/10/05 13:53:17;;;;;;;0.80;0.53;;;11.70;99.90;;;;;;2022700;70;25211;-89
2023/10/05 13:56:06;;;;;;;2.70;0.90;;;11.70;99.90;;;;;;2010107;70;25261;-88
2023/10/05 14:12:24;;;;;;;1.13;0.70;;;11.60;99.90;;;;;;1937973;71;27055;-88
2023/10/05 14:17:59;;;;;;;1.03;0.80;;;11.70;99.90;;;;;;1942906;72;27130;-89
2023/10/05 14:20:50;;;;;;;2.60;0.83;;;11.70;99.90;;;;;;1928947;73;25280;-88
2023/10/05 14:23:39;;;;;;;2.93;1.00;;;11.70;99.90;;;;;;1925838;73;25220;-88
2023/10/05 14:26:28;;;;;;;3.43;0.80;;;11.60;99.90;;;;;;1921884;73;25217;-89
2023/10/05 14:29:19;;;;;;;1.90;0.87;;;11.60;99.90;;;;;;1919753;73;25156;-89
2023/10/05 14:32:09;;;;;;;2.30;0.80;;;11.60;99.90;;;;;;1924129;73;25223;-89
2023/10/05 14:35:02;;;;;;;1.43;0.90;;;11.50;99.90;;;;;;1919563;73;25243;-89
2023/10/05 14:51:27;;;;;;;1.37;0.90;;;11.50;99.90;;;;;;1865876;75;27800;-89
2023/10/05 14:57:12;;;;;;;1.13;0.90;;;11.80;99.90;;;;;;1940875;72;26947;-90
2023/10/05 15:00:04;;;;;;;1.53;0.83;;;11.70;99.90;;;;;;1922249;72;25186;-90
2023/10/05 15:02:53;;;;;;;3.90;0.90;;;11.60;99.90;;;;;;1920444;73;25225;-90
2023/10/05 15:05:43;;;;;;;1.60;0.70;;;11.60;99.90;;;;;;1909857;73;25274;-90
2023/10/05 15:08:32;;;;;;;0.80;0.80;;;11.60;99.90;;;;;;1906019;75;25165;-90
2023/10/05 15:11:26;;;;;;;1.83;0.57;;;11.50;99.90;;;;;;1893989;75;25276;-90
2023/10/05 15:14:12;;;;;;;1.50;0.67;;;11.50;99.90;;;;;;1874751;75;25784;-90
2023/10/05 15:17:01;;;;;;;1.73;0.90;;;11.50;99.90;;;;;;1883218;75;25212;-90
2023/10/05 15:22:44;;;;;;;0.93;0.70;;;11.40;99.90;;;;;;1946737;72;27005;-89
2023/10/05 15:26:19;;;;;;;1.77;0.90;;;11.30;99.90;;;;;;1881176;75;25220;-90
2023/10/05 15:32:02;;;;;;;0.73;0.50;;;11.20;99.90;;;;;;1945944;72;27488;-90
2023/10/05 16:10:12;;;;;;;1.73;0.97;;;10.80;99.90;;;;;;1958311;72;27136;-91
2023/10/05 16:35:34;;;;;;;4.40;3.03;;;10.10;99.90;;;;;;1931577;73;26896;-90
2023/10/05 16:55:16;;;;;;;1.77;1.20;;;8.70;99.90;;;;;;1946373;72;30005;-91
2023/10/05 16:58:29;;;;;;;2.47;1.50;;;8.50;99.90;;;;;;1916954;73;25241;-91
2023/10/05 17:05:16;;;;;;;1.40;1.30;;;8.20;99.90;;;;;;1918330;73;25251;-90
2023/10/05 17:23:00;;;;;;;2.97;1.40;;;7.90;99.90;;;;;;1977275;71;26968;-89
2023/10/05 17:25:50;;;;;;;3.03;1.30;;;7.30;99.90;;;;;;1929108;73;25227;-89
2023/10/05 17:28:40;;;;;;;4.73;1.57;;;7.20;99.90;;;;;;1995438;70;25247;-89
2023/10/05 17:31:28;;;;;;;3.60;2.00;;;7.10;99.90;;;;;;2008460;70;25222;-89
2023/10/05 17:34:17;;;;;;;3.77;1.50;;;7.00;99.90;;;;;;2007389;70;25235;-89
2023/10/05 17:37:05;;;;;;;3.57;1.60;;;6.80;99.90;;;;;;1927890;73;25247;-89
2023/10/05 17:39:54;;;;;;;2.30;1.70;;;6.80;99.90;;;;;;2009353;70;25130;-89
2023/10/05 17:45:37;;;;;;;4.67;2.30;;;6.50;99.90;;;;;;1952240;72;27006;-89
2023/10/05 17:48:27;;;;;;;3.63;2.00;;;6.50;99.90;;;;;;1925835;73;25272;-89
2023/10/05 17:51:16;;;;;;;3.50;1.80;;;6.40;99.90;;;;;;1934360;72;25268;-89
2023/10/05 17:57:57;;;;;;;7.33;2.50;;;6.30;99.90;;;;;;1981262;71;26393;-89
2023/10/05 18:00:47;;;;;;;3.83;2.20;;;6.10;99.90;;;;;;2013508;70;25348;-89
2023/10/05 18:03:35;;;;;;;5.37;2.00;;;6.00;99.90;;;;;;2014132;70;25744;-89
2023/10/05 18:06:24;;;;;;;5.20;2.07;;;5.90;99.90;;;;;;2015700;70;25340;-89
2023/10/05 18:09:16;;;;;;;3.13;1.90;;;5.80;99.90;;;;;;2007005;70;25244;-89
2023/10/05 18:12:03;;;;;;;6.07;1.97;;;5.80;99.90;;;;;;2011628;70;25674;-89
2023/10/05 18:14:52;;;;;;;6.00;2.20;;;5.80;99.90;;;;;;2014822;70;25221;-89
2023/10/05 18:17:41;;;;;;;6.97;2.20;;;5.70;99.90;;;;;;2007403;70;25236;-89
2023/10/05 18:33:42;;;;;;;5.47;2.43;;;5.60;99.90;;;;;;1844412;77;27150;-89
2023/10/05 18:39:13;;;;;;;8.53;3.23;;;5.30;99.90;;;;;;1897282;74;27043;-89
2023/10/05 18:42:03;;;;;;;6.43;3.63;;;5.20;99.90;;;;;;1841733;76;25267;-89
2023/10/05 18:44:52;;;;;;;6.27;3.37;;;5.20;99.90;;;;;;1835945;76;25171;-88
2023/10/05 18:47:41;;;;;;;5.50;3.23;;;5.10;99.90;;;;;;1834806;76;25253;-91
2023/10/05 19:04:18;;;;;;;7.80;4.27;;;5.00;99.90;;;;;;1952570;72;27090;-89
2023/10/05 19:21:14;;;;;;;13.60;7.03;;;4.90;99.90;;;;;;1950190;72;26889;-88
2023/10/05 19:37:38;;;;;;;6.97;4.37;;;4.60;99.90;;;;;;1948923;72;27675;-89
2023/10/05 19:44:16;;;;;;;7.20;4.80;;;4.50;99.90;;;;;;1978338;71;26982;-89
2023/10/05 19:47:11;;;;;;;9.67;5.00;;;4.30;99.90;;;;;;2030856;70;25715;-89
2023/10/05 19:49:57;;;;;;;7.53;4.30;;;4.30;99.90;;;;;;2035480;69;25138;-89
2023/10/05 19:52:45;;;;;;;7.43;4.60;;;4.20;99.90;;;;;;2025620;69;25196;-90
2023/10/05 19:55:34;;;;;;;11.87;5.40;;;4.20;99.90;;;;;;2025097;69;25141;-90
2023/10/05 19:58:22;;;;;;;14.50;4.80;;;4.10;99.90;;;;;;2022482;70;25224;-90
2023/10/05 20:01:13;;;;;;;8.97;4.37;;;4.10;99.90;;;;;;2027224;69;25172;-90
2023/10/05 20:04:01;;;;;;;11.83;4.13;;;4.10;99.90;;;;;;1981287;72;25151;-90
2023/10/05 20:06:50;;;;;;;7.93;4.47;;;4.10;99.90;;;;;;1942457;73;25226;-90
2023/10/05 20:09:39;;;;;;;12.53;5.00;;;3.90;99.90;;;;;;1943600;72;25243;-90
2023/10/05 20:12:27;;;;;;;15.67;4.70;;;3.90;99.90;;;;;;1974113;72;25281;-90
2023/10/05 20:15:16;;;;;;;12.23;4.53;;;3.80;99.90;;;;;;1970021;71;25215;-90
2023/10/05 20:18:07;;;;;;;5.97;3.90;;;3.80;99.90;;;;;;1986189;71;25209;-90
2023/10/05 20:20:56;;;;;;;9.73;4.40;;;3.80;99.90;;;;;;1995954;71;25251;-90
2023/10/05 20:23:44;;;;;;;8.20;4.00;;;3.70;99.90;;;;;;1971465;71;25681;-90
2023/10/05 20:26:33;;;;;;;7.10;3.97;;;3.70;99.90;;;;;;1979968;71;25278;-90
2023/10/05 20:29:25;;;;;;;12.40;5.63;;;3.70;99.90;;;;;;1988619;72;25237;-90
2023/10/05 20:32:11;;;;;;;35.87;13.67;;;3.60;99.90;;;;;;1980083;72;25171;-90
2023/10/05 20:35:00;;;;;;;31.23;12.67;;;3.60;99.90;;;;;;1979068;71;25245;-90
2023/10/05 20:37:49;;;;;;;15.37;6.67;;;3.60;99.90;;;;;;1947569;72;25153;-90
2023/10/05 20:40:37;;;;;;;11.47;4.33;;;3.70;99.90;;;;;;1972280;72;25675;-90
2023/10/05 20:43:26;;;;;;;6.93;3.93;;;3.70;99.90;;;;;;1917089;73;26058;-90
2023/10/05 20:46:14;;;;;;;5.97;3.73;;;3.60;99.90;;;;;;1970256;72;25691;-90
2023/10/05 20:49:03;;;;;;;12.07;4.07;;;3.60;99.90;;;;;;1989623;72;25171;-90
2023/10/05 20:51:53;;;;;;;12.00;4.80;;;3.60;99.90;;;;;;1992019;71;25476;-90
2023/10/05 20:54:42;;;;;;;11.30;4.93;;;3.60;99.90;;;;;;1985465;72;25657;-90
2023/10/05 21:00:23;;;;;;;8.80;4.00;;;3.50;99.90;;;;;;1941560;72;27113;-88
2023/10/05 21:06:00;;;;;;;11.27;6.00;;;3.50;99.90;;;;;;1952063;72;27033;-89
2023/10/05 21:08:49;;;;;;;11.23;5.33;;;3.50;99.90;;;;;;1929686;72;25339;-90
2023/10/05 21:11:38;;;;;;;11.10;3.93;;;3.40;99.90;;;;;;1925193;72;25179;-90
2023/10/05 21:14:27;;;;;;;12.43;5.23;;;3.40;99.90;;;;;;1930733;73;25152;-90
2023/10/05 21:17:17;;;;;;;17.80;7.87;;;3.40;99.90;;;;;;1934415;73;25232;-90
2023/10/05 21:20:07;;;;;;;13.33;5.77;;;3.40;99.90;;;;;;1926885;73;25799;-90
2023/10/05 21:22:55;;;;;;;23.33;8.90;;;3.40;99.90;;;;;;1935286;73;25728;-89
2023/10/05 21:25:47;;;;;;;24.40;9.70;;;3.30;99.90;;;;;;1938503;73;25344;-90
2023/10/05 21:28:36;;;;;;;31.43;10.90;;;3.30;99.90;;;;;;1935388;73;25298;-89
2023/10/05 21:31:25;;;;;;;20.20;8.27;;;3.40;99.90;;;;;;1938244;72;25170;-89
2023/10/05 21:34:15;;;;;;;26.07;9.77;;;3.30;99.90;;;;;;1934476;72;25262;-89